Time,TemperatureF,DewpointF,PressureIn,WindDirection,WindDirectionDegrees,WindSpeedMPH,WindSpeedGustMPH,Humidity,HourlyPrecipIn,Conditions,Clouds,dailyrainin,SoftwareType,DateUTC
2013-05-12 00:01:00,39.2,29.6,30.00,North,349,3.6,4.5,68,0.00,,,0.00,WUHU216HW,2013-05-12 05:01:00,
2013-05-12 00:11:00,39.2,29.6,30.01,North,349,3.6,6.2,68,0.00,,,0.00,WUHU216HW,2013-05-12 05:11:00,
2013-05-12 00:21:00,39.2,30.0,30.01,NNW,338,3.7,5.6,69,0.00,,,0.00,WUHU216HW,2013-05-12 05:21:00,
2013-05-12 00:31:00,39.4,30.2,30.01,NW,325,4.1,5.8,69,0.00,,,0.00,WUHU216HW,2013-05-12 05:31:00,
2013-05-12 00:41:00,39.4,29.8,30.01,NNW,330,6.1,8.8,68,0.00,,,0.00,WUHU216HW,2013-05-12 05:41:00,
2013-05-12 00:51:00,39.4,29.8,30.01,NNW,335,5.6,7.9,68,0.00,,,0.00,WUHU216HW,2013-05-12 05:51:00,
2013-05-12 01:01:00,39.4,29.8,30.01,NNW,341,6.3,7.9,68,0.00,,,0.00,WUHU216HW,2013-05-12 06:01:00,
2013-05-12 01:11:00,39.0,29.4,30.00,NNW,347,5.9,9.6,68,0.00,,,0.00,WUHU216HW,2013-05-12 06:11:00,
2013-05-12 01:21:00,38.7,29.1,30.00,NNW,345,4.8,6.0,68,0.00,,,0.00,WUHU216HW,2013-05-12 06:21:00,
2013-05-12 01:31:00,38.3,28.7,30.00,NNW,327,4.1,7.7,68,0.00,,,0.00,WUHU216HW,2013-05-12 06:31:00,
2013-05-12 01:42:00,38.1,28.5,30.01,NNW,329,5.6,7.5,68,0.00,,,0.00,WUHU216HW,2013-05-12 06:42:00,
2013-05-12 01:52:00,37.8,28.3,30.01,NW,306,5.1,8.1,68,0.00,,,0.00,WUHU216HW,2013-05-12 06:52:00,
2013-05-12 02:02:00,37.6,28.4,30.01,NNW,334,4.2,5.8,69,0.00,,,0.00,WUHU216HW,2013-05-12 07:02:00,
2013-05-12 02:12:00,37.4,28.2,30.01,NNW,339,4.7,7.5,69,0.00,,,0.00,WUHU216HW,2013-05-12 07:12:00,
2013-05-12 02:22:00,37.1,27.9,30.01,NNW,342,4.7,8.1,69,0.00,,,0.00,WUHU216HW,2013-05-12 07:22:00,
2013-05-12 02:32:00,36.9,27.8,30.01,North,349,4.4,6.6,69,0.00,,,0.00,WUHU216HW,2013-05-12 07:32:00,
2013-05-12 02:42:00,36.9,28.1,30.01,NNW,327,3.7,6.6,70,0.00,,,0.00,WUHU216HW,2013-05-12 07:42:00,
2013-05-12 02:52:00,36.9,28.1,30.01,WNW,300,3.4,5.1,70,0.00,,,0.00,WUHU216HW,2013-05-12 07:52:00,
2013-05-12 03:02:00,36.3,27.5,30.01,NW,317,4.4,7.2,70,0.00,,,0.00,WUHU216HW,2013-05-12 08:02:00,
2013-05-12 03:12:00,36.0,27.6,30.01,NW,308,5.4,8.6,71,0.00,,,0.00,WUHU216HW,2013-05-12 08:12:00,
2013-05-12 03:22:00,36.2,27.8,30.01,NW,326,4.5,6.2,71,0.00,,,0.00,WUHU216HW,2013-05-12 08:22:00,
2013-05-12 03:32:00,36.0,27.2,30.02,NNW,340,5.3,7.2,70,0.00,,,0.00,WUHU216HW,2013-05-12 08:32:00,
2013-05-12 03:42:00,35.8,27.0,30.02,NNW,328,4.3,5.3,70,0.00,,,0.00,WUHU216HW,2013-05-12 08:42:00,
2013-05-12 03:52:00,35.6,26.5,30.02,North,351,6.9,8.8,69,0.00,,,0.00,WUHU216HW,2013-05-12 08:52:00,
2013-05-12 04:02:00,35.6,25.8,30.01,North,349,6.0,8.8,67,0.00,,,0.00,WUHU216HW,2013-05-12 09:02:00,
2013-05-12 04:12:00,35.6,25.8,30.02,North,356,5.8,7.5,67,0.00,,,0.00,WUHU216HW,2013-05-12 09:12:00,
2013-05-12 04:22:00,35.4,25.6,30.02,NNW,331,5.6,7.9,67,0.00,,,0.00,WUHU216HW,2013-05-12 09:22:00,
2013-05-12 04:32:00,35.4,26.0,30.02,NNW,328,3.7,6.2,68,0.00,,,0.00,WUHU216HW,2013-05-12 09:32:00,
2013-05-12 04:42:00,35.4,26.0,30.02,NNW,328,6.6,8.1,68,0.00,,,0.00,WUHU216HW,2013-05-12 09:42:00,
2013-05-12 04:52:00,35.3,25.9,30.02,NNW,333,7.4,10.0,68,0.00,,,0.00,WUHU216HW,2013-05-12 09:52:00,
2013-05-12 05:02:00,34.9,25.5,30.02,NNW,348,6.3,9.8,68,0.00,,,0.00,WUHU216HW,2013-05-12 10:02:00,
2013-05-12 05:12:00,34.7,25.3,30.02,NNW,344,4.8,9.0,68,0.00,,,0.00,WUHU216HW,2013-05-12 10:12:00,
2013-05-12 05:22:00,34.5,25.4,30.02,NNW,343,4.0,5.1,69,0.00,,,0.00,WUHU216HW,2013-05-12 10:22:00,
2013-05-12 05:32:00,34.2,25.2,30.03,NW,308,4.9,7.5,69,0.00,,,0.00,WUHU216HW,2013-05-12 10:32:00,
2013-05-12 05:42:00,34.0,25.3,30.03,NW,325,5.1,7.5,70,0.00,,,0.00,WUHU216HW,2013-05-12 10:42:00,
2013-05-12 05:52:00,34.4,25.7,30.03,NNW,343,6.2,8.4,70,0.00,,,0.00,WUHU216HW,2013-05-12 10:52:00,
2013-05-12 06:02:00,34.9,25.8,30.04,North,351,5.2,7.5,69,0.00,,,0.00,WUHU216HW,2013-05-12 11:02:00,
2013-05-12 06:12:00,40.3,30.3,30.04,NNW,346,6.3,7.9,67,0.00,,,0.00,WUHU216HW,2013-05-12 11:12:00,
2013-05-12 06:22:00,43.5,31.0,30.04,NNW,339,5.3,7.9,61,0.00,,,0.00,WUHU216HW,2013-05-12 11:22:00,
2013-05-12 06:32:00,45.7,31.8,30.04,North,351,5.0,7.0,58,0.00,,,0.00,WUHU216HW,2013-05-12 11:32:00,
2013-05-12 06:42:00,47.3,32.0,30.05,NNW,336,5.5,9.3,55,0.00,,,0.00,WUHU216HW,2013-05-12 11:42:00,
2013-05-12 06:52:00,47.5,30.7,30.04,NNW,338,6.7,8.6,52,0.00,,,0.00,WUHU216HW,2013-05-12 11:52:00,
2013-05-12 07:02:00,48.4,31.1,30.05,NNW,343,6.7,8.6,51,0.00,,,0.00,WUHU216HW,2013-05-12 12:02:00,
2013-05-12 07:13:00,49.7,30.7,30.05,NNW,344,6.4,8.1,48,0.00,,,0.00,WUHU216HW,2013-05-12 12:13:00,
2013-05-12 07:23:00,50.9,30.8,30.05,NNW,339,6.0,9.3,46,0.00,,,0.00,WUHU216HW,2013-05-12 12:23:00,
2013-05-12 07:33:00,50.2,29.6,30.05,NNW,339,6.7,9.8,45,0.00,,,0.00,WUHU216HW,2013-05-12 12:33:00,
2013-05-12 07:43:00,51.5,31.9,30.05,NNW,336,6.2,9.8,47,0.00,,,0.00,WUHU216HW,2013-05-12 12:43:00,
2013-05-12 07:53:00,52.0,30.6,30.06,NNW,338,5.1,6.6,44,0.00,,,0.00,WUHU216HW,2013-05-12 12:53:00,
2013-05-12 08:03:00,50.6,29.4,30.06,NNW,339,6.0,7.5,44,0.00,,,0.00,WUHU216HW,2013-05-12 13:03:00,
2013-05-12 08:13:00,49.5,28.9,30.06,NNW,334,6.2,9.6,45,0.00,,,0.00,WUHU216HW,2013-05-12 13:13:00,
2013-05-12 08:23:00,48.8,28.3,30.06,NNW,340,6.3,8.1,45,0.00,,,0.00,WUHU216HW,2013-05-12 13:23:00,
2013-05-12 08:33:00,46.8,27.5,30.06,North,351,6.3,8.1,47,0.00,,,0.00,WUHU216HW,2013-05-12 13:33:00,
2013-05-12 08:43:00,45.5,26.9,30.07,NNW,336,6.4,10.7,48,0.00,,,0.00,WUHU216HW,2013-05-12 13:43:00,
2013-05-12 08:53:00,44.8,27.2,30.07,NNW,342,6.1,7.2,50,0.00,,,0.00,WUHU216HW,2013-05-12 13:53:00,
2013-05-12 09:03:00,45.0,27.4,30.07,NNW,340,7.3,9.6,50,0.00,,,0.00,WUHU216HW,2013-05-12 14:03:00,
2013-05-12 09:13:00,44.8,27.2,30.07,NW,325,6.5,9.6,50,0.00,,,0.00,WUHU216HW,2013-05-12 14:13:00,
2013-05-12 09:23:00,44.3,27.3,30.07,NNW,340,7.2,9.6,51,0.00,,,0.00,WUHU216HW,2013-05-12 14:23:00,
2013-05-12 09:33:00,44.4,27.4,30.07,NNW,344,6.7,8.6,51,0.00,,,0.00,WUHU216HW,2013-05-12 14:33:00,
2013-05-12 09:43:00,44.1,27.1,30.07,NNW,338,6.9,10.0,51,0.00,,,0.00,WUHU216HW,2013-05-12 14:43:00,
2013-05-12 09:53:00,44.1,28.1,30.07,NNW,344,6.2,9.3,53,0.00,,,0.00,WUHU216HW,2013-05-12 14:53:00,
2013-05-12 10:03:00,44.4,27.9,30.07,NNW,339,5.8,9.6,52,0.00,,,0.00,WUHU216HW,2013-05-12 15:03:00,
2013-05-12 10:13:00,44.4,27.4,30.07,North,351,6.5,8.8,51,0.00,,,0.00,WUHU216HW,2013-05-12 15:13:00,
2013-05-12 10:23:00,44.8,28.2,30.08,NW,311,6.9,10.9,52,0.00,,,0.00,WUHU216HW,2013-05-12 15:23:00,
2013-05-12 10:33:00,44.8,27.7,30.08,NNW,330,6.8,9.3,51,0.00,,,0.00,WUHU216HW,2013-05-12 15:33:00,
2013-05-12 10:43:00,45.5,27.9,30.07,NNW,339,6.8,8.6,50,0.00,,,0.00,WUHU216HW,2013-05-12 15:43:00,
2013-05-12 10:53:00,45.5,27.9,30.08,NNW,329,6.2,8.8,50,0.00,,,0.00,WUHU216HW,2013-05-12 15:53:00,
2013-05-12 11:03:00,45.5,27.9,30.08,NNW,343,8.0,10.0,50,0.00,,,0.00,WUHU216HW,2013-05-12 16:03:00,
2013-05-12 11:13:00,45.7,28.1,30.08,NNW,334,6.9,8.6,50,0.00,,,0.00,WUHU216HW,2013-05-12 16:13:00,
2013-05-12 11:23:00,46.8,28.6,30.08,NW,316,7.3,9.6,49,0.00,,,0.00,WUHU216HW,2013-05-12 16:23:00,
2013-05-12 11:33:00,46.6,27.9,30.08,NNW,346,7.2,9.3,48,0.00,,,0.00,WUHU216HW,2013-05-12 16:33:00,
2013-05-12 11:43:00,46.4,27.2,30.08,NW,315,8.4,11.6,47,0.00,,,0.00,WUHU216HW,2013-05-12 16:43:00,
2013-05-12 11:53:00,46.4,27.7,30.08,NW,313,8.3,11.4,48,0.00,,,0.00,WUHU216HW,2013-05-12 16:53:00,
2013-05-12 12:03:00,46.2,27.0,30.08,NNW,331,7.4,10.2,47,0.00,,,0.00,WUHU216HW,2013-05-12 17:03:00,
2013-05-12 12:13:00,46.4,27.7,30.08,NW,317,7.3,9.3,48,0.00,,,0.00,WUHU216HW,2013-05-12 17:13:00,
2013-05-12 12:23:00,46.2,27.0,30.08,North,357,8.0,10.2,47,0.00,,,0.00,WUHU216HW,2013-05-12 17:23:00,
2013-05-12 12:33:00,46.2,27.0,30.08,NNW,341,9.1,10.9,47,0.00,,,0.00,WUHU216HW,2013-05-12 17:33:00,
2013-05-12 12:43:00,47.0,27.7,30.08,NW,325,7.0,10.0,47,0.00,,,0.00,WUHU216HW,2013-05-12 17:43:00,
2013-05-12 12:53:00,46.8,27.5,30.08,North,357,6.3,7.9,47,0.00,,,0.00,WUHU216HW,2013-05-12 17:53:00,
2013-05-12 13:04:00,47.0,27.7,30.08,NNW,338,7.2,13.9,47,0.00,,,0.00,WUHU216HW,2013-05-12 18:04:00,
2013-05-12 13:14:00,47.7,27.8,30.08,NW,323,6.1,8.6,46,0.00,,,0.00,WUHU216HW,2013-05-12 18:14:00,
2013-05-12 13:24:00,47.3,27.5,30.07,NW,319,6.0,8.1,46,0.00,,,0.00,WUHU216HW,2013-05-12 18:24:00,
2013-05-12 13:34:00,47.0,27.2,30.08,North,349,7.3,9.6,46,0.00,,,0.00,WUHU216HW,2013-05-12 18:34:00,
2013-05-12 13:44:00,47.3,27.5,30.07,NNW,346,5.1,9.8,46,0.00,,,0.00,WUHU216HW,2013-05-12 18:44:00,
2013-05-12 13:54:00,48.0,27.5,30.07,NNW,346,6.6,8.8,45,0.00,,,0.00,WUHU216HW,2013-05-12 18:54:00,
2013-05-12 14:04:00,48.4,27.4,30.07,NW,323,6.4,9.6,44,0.00,,,0.00,WUHU216HW,2013-05-12 19:04:00,
2013-05-12 14:14:00,48.8,27.1,30.07,NW,325,6.7,9.8,43,0.00,,,0.00,WUHU216HW,2013-05-12 19:14:00,
2013-05-12 14:24:00,48.8,27.1,30.07,North,351,5.9,7.9,43,0.00,,,0.00,WUHU216HW,2013-05-12 19:24:00,
2013-05-12 14:34:00,49.1,28.0,30.07,WNW,285,6.0,9.6,44,0.00,,,0.00,WUHU216HW,2013-05-12 19:34:00,
2013-05-12 14:44:00,50.0,28.2,30.06,West,271,4.6,7.7,43,0.00,,,0.00,WUHU216HW,2013-05-12 19:44:00,
2013-05-12 14:54:00,50.4,28.0,30.06,WNW,294,6.4,9.6,42,0.00,,,0.00,WUHU216HW,2013-05-12 19:54:00,
2013-05-12 15:04:00,51.1,28.0,30.06,NNW,339,4.6,7.2,41,0.00,,,0.00,WUHU216HW,2013-05-12 20:04:00,
2013-05-12 15:14:00,50.7,28.3,30.06,NW,320,5.5,7.9,42,0.00,,,0.00,WUHU216HW,2013-05-12 20:14:00,
2013-05-12 15:24:00,50.7,27.7,30.05,NNW,348,5.5,8.1,41,0.00,,,0.00,WUHU216HW,2013-05-12 20:24:00,
2013-05-12 15:34:00,51.1,28.0,30.05,NNW,335,5.7,7.0,41,0.00,,,0.00,WUHU216HW,2013-05-12 20:34:00,
2013-05-12 15:44:00,51.1,28.0,30.05,West,277,5.5,10.7,41,0.00,,,0.00,WUHU216HW,2013-05-12 20:44:00,
2013-05-12 15:54:00,50.9,27.9,30.05,WNW,301,4.6,6.8,41,0.00,,,0.00,WUHU216HW,2013-05-12 20:54:00,
2013-05-12 16:04:00,52.0,28.9,30.05,WNW,294,5.0,7.2,41,0.00,,,0.00,WUHU216HW,2013-05-12 21:04:00,
2013-05-12 16:14:00,51.6,28.5,30.05,WNW,302,5.8,7.9,41,0.00,,,0.00,WUHU216HW,2013-05-12 21:14:00,
2013-05-12 16:24:00,51.5,26.5,30.05,NNW,327,6.4,9.6,38,0.00,,,0.00,WUHU216HW,2013-05-12 21:24:00,
2013-05-12 16:34:00,52.0,27.6,30.05,WNW,298,5.7,8.8,39,0.00,,,0.00,WUHU216HW,2013-05-12 21:34:00,
2013-05-12 16:44:00,52.2,27.8,30.04,NW,326,5.2,7.9,39,0.00,,,0.00,WUHU216HW,2013-05-12 21:44:00,
2013-05-12 16:54:00,53.1,27.9,30.04,NNW,333,4.7,6.6,38,0.00,,,0.00,WUHU216HW,2013-05-12 21:54:00,
2013-05-12 17:04:00,52.4,28.0,30.04,NNW,342,5.8,8.1,39,0.00,,,0.00,WUHU216HW,2013-05-12 22:04:00,
2013-05-12 17:14:00,52.0,27.0,30.04,NNW,348,6.2,6.8,38,0.00,,,0.00,WUHU216HW,2013-05-12 22:14:00,
2013-05-12 17:24:00,52.4,27.3,30.04,NNW,345,4.6,6.0,38,0.00,,,0.00,WUHU216HW,2013-05-12 22:24:00,
2013-05-12 17:34:00,52.0,27.0,30.04,NNW,346,4.3,6.0,38,0.00,,,0.00,WUHU216HW,2013-05-12 22:34:00,
2013-05-12 17:44:00,51.8,26.8,30.05,NNW,338,5.0,7.2,38,0.00,,,0.00,WUHU216HW,2013-05-12 22:44:00,
2013-05-12 17:54:00,51.5,25.9,30.04,North,355,5.1,6.6,37,0.00,,,0.00,WUHU216HW,2013-05-12 22:54:00,
2013-05-12 18:04:00,51.3,25.7,30.04,NW,317,4.4,6.6,37,0.00,,,0.00,WUHU216HW,2013-05-12 23:04:00,
2013-05-12 18:14:00,51.3,26.3,30.04,NNW,337,2.6,3.7,38,0.00,,,0.00,WUHU216HW,2013-05-12 23:14:00,
2013-05-12 18:24:00,51.6,27.2,30.04,NNW,348,3.5,5.3,39,0.00,,,0.00,WUHU216HW,2013-05-12 23:24:00,
2013-05-12 18:34:00,51.1,26.8,30.04,NNW,348,3.7,5.1,39,0.00,,,0.00,WUHU216HW,2013-05-12 23:34:00,
2013-05-12 18:44:00,51.1,27.4,30.04,NNW,347,2.4,4.5,40,0.00,,,0.00,WUHU216HW,2013-05-12 23:44:00,
2013-05-12 18:54:00,50.9,27.2,30.04,North,354,3.0,4.2,40,0.00,,,0.00,WUHU216HW,2013-05-12 23:54:00,
2013-05-12 19:04:00,50.6,27.0,30.04,North,351,2.2,3.7,40,0.00,,,0.00,WUHU216HW,2013-05-13 00:04:00,
2013-05-12 19:15:00,50.0,27.0,30.04,North,351,2.3,4.0,41,0.00,,,0.00,WUHU216HW,2013-05-13 00:15:00,
2013-05-12 19:25:00,49.7,26.2,30.04,North,2,1.7,2.6,40,0.00,,,0.00,WUHU216HW,2013-05-13 00:25:00,
2013-05-12 19:35:00,49.3,26.4,30.04,North,353,1.7,3.0,41,0.00,,,0.00,WUHU216HW,2013-05-13 00:35:00,
2013-05-12 19:45:00,48.8,26.6,30.04,NNW,339,1.3,2.1,42,0.00,,,0.00,WUHU216HW,2013-05-13 00:45:00,
2013-05-12 19:55:00,48.2,26.6,30.04,NNW,346,1.2,1.7,43,0.00,,,0.00,WUHU216HW,2013-05-13 00:55:00,
2013-05-12 20:05:00,47.3,26.3,30.04,NNW,341,0.6,1.1,44,0.00,,,0.00,WUHU216HW,2013-05-13 01:05:00,
2013-05-12 20:15:00,46.6,26.3,30.04,NNW,342,0.5,1.1,45,0.00,,,0.00,WUHU216HW,2013-05-13 01:15:00,
2013-05-12 20:25:00,45.9,25.6,30.04,NNW,338,0.6,0.9,45,0.00,,,0.00,WUHU216HW,2013-05-13 01:25:00,
2013-05-12 20:35:00,45.0,25.3,30.04,NNW,339,0.5,1.1,46,0.00,,,0.00,WUHU216HW,2013-05-13 01:35:00,
2013-05-12 20:45:00,44.4,25.3,30.05,NNW,327,0.7,1.1,47,0.00,,,0.00,WUHU216HW,2013-05-13 01:45:00,
2013-05-12 20:55:00,43.9,25.4,30.05,NNW,343,0.6,0.9,48,0.00,,,0.00,WUHU216HW,2013-05-13 01:55:00,
2013-05-12 21:05:00,43.4,25.4,30.05,NNW,344,0.5,1.1,49,0.00,,,0.00,WUHU216HW,2013-05-13 02:05:00,
2013-05-12 21:15:00,42.6,25.2,30.06,NW,315,0.3,0.4,50,0.00,,,0.00,WUHU216HW,2013-05-13 02:15:00,
2013-05-12 21:25:00,42.1,24.2,30.06,NNW,333,0.6,0.9,49,0.00,,,0.00,WUHU216HW,2013-05-13 02:25:00,
2013-05-12 21:35:00,41.6,24.3,30.06,NNW,338,0.6,0.7,50,0.00,,,0.00,WUHU216HW,2013-05-13 02:35:00,
2013-05-12 21:45:00,41.0,24.2,30.06,North,0,0.0,0.0,51,0.00,,,0.00,WUHU216HW,2013-05-13 02:45:00,
2013-05-12 21:55:00,40.3,24.5,30.06,NNW,338,0.4,0.4,53,0.00,,,0.00,WUHU216HW,2013-05-13 02:55:00,
2013-05-12 22:05:00,39.9,25.9,30.07,ENE,66,6.2,7.2,57,0.00,,,0.00,WUHU216HW,2013-05-13 03:05:00,
2013-05-12 22:15:00,40.1,26.1,30.07,ENE,71,5.3,7.0,57,0.00,,,0.00,WUHU216HW,2013-05-13 03:15:00,
2013-05-12 22:25:00,39.9,27.2,30.07,NE,56,5.4,7.0,60,0.00,,,0.00,WUHU216HW,2013-05-13 03:25:00,
2013-05-12 22:35:00,39.8,28.3,30.07,NE,54,7.4,10.7,63,0.00,,,0.00,WUHU216HW,2013-05-13 03:35:00,
2013-05-12 22:45:00,39.4,27.9,30.08,ENE,68,8.2,9.8,63,0.00,,,0.00,WUHU216HW,2013-05-13 03:45:00,
2013-05-12 22:55:00,38.9,28.6,30.08,ENE,62,7.7,11.9,66,0.00,,,0.00,WUHU216HW,2013-05-13 03:55:00,
2013-05-12 23:05:00,38.3,29.4,30.09,ENE,59,9.4,10.9,70,0.00,,,0.00,WUHU216HW,2013-05-13 04:05:00,
2013-05-12 23:15:00,37.8,31.3,30.09,NE,55,10.0,12.6,77,0.00,,,0.00,WUHU216HW,2013-05-13 04:15:00,
2013-05-12 23:25:00,37.2,30.4,30.10,NE,52,9.7,13.0,76,0.00,,,0.00,WUHU216HW,2013-05-13 04:25:00,
2013-05-12 23:35:00,36.9,30.1,30.10,ENE,75,7.2,8.6,76,0.00,,,0.00,WUHU216HW,2013-05-13 04:35:00,
2013-05-12 23:45:00,36.5,30.3,30.10,ENE,65,7.5,9.6,78,0.00,,,0.00,WUHU216HW,2013-05-13 04:45:00,
2013-05-12 23:55:00,36.0,29.8,30.10,NE,55,6.3,10.9,78,0.00,,,0.00,WUHU216HW,2013-05-13 04:55:00,